Alyeska Resort
Hourly Weather - Mid Mountian Site
ALY_MID_HR 8/27/2015
CLICK TO VIEW GRAPH!!

        DATE  TIME   Air   H2o   H2o   New  Snow  BATT   Rel
                    Temp  Inch Since  Snow Depth  Volt  Hum%
                      F   1HR  0600   1HR         AVG   AVG

   8/27/2015 20:00    49  0.00  0.00  59.8  5.36 13.17    49
   8/27/2015 19:00    52  0.00  0.00  54.5  3.67 13.15    55
   8/27/2015 18:00    53  0.00  0.00  51.7 15.83 13.14    58
   8/27/2015 17:00    55  0.00  0.00  51.1  3.54 13.13    52
   8/27/2015 16:00    59  0.00  0.00  52.9  2.10 13.14    50
   8/27/2015 15:00    57  0.00  0.00  65.5 15.72 13.16    58
   8/27/2015 14:00    56  0.00  0.00  65.4  2.54 13.19    60
   8/27/2015 13:00    52  0.00  0.00  59.1 28.37 13.21    67
   8/27/2015 12:00    51  0.00  0.00  56.6 18.75 13.22    72
   8/27/2015 11:00    52  0.00  0.00  52.4 15.76 13.23    77
   8/27/2015 10:00    49  0.00  0.00  50.1 16.62 13.24    91
   8/27/2015 09:00    48  0.00  0.00  48.2 23.91 13.24    94
   8/27/2015 08:00    47  0.00  0.00  48.1 31.48 13.24    96
   8/27/2015 07:00    47  0.00  0.00  48.2 17.67 13.24    95
   8/27/2015 06:00    48  0.00  0.00  48.0 18.11 13.24    95
   8/27/2015 05:00    48  0.00  0.00  47.7 23.85 13.23    96
   8/27/2015 04:00    48  0.00  0.00  47.4 16.51 13.23    96
   8/27/2015 03:00    48  0.00  0.00  47.2 24.68 13.23    96
   8/27/2015 02:00    48  0.00  0.00  47.3 24.94 13.23    96
   8/27/2015 01:00    48  0.00  0.00  47.8 25.18 13.23    97
   8/26/2015 24:00    48  0.00  0.00  48.4 20.96 13.22    96
   8/26/2015 23:00    48  0.00  0.00  49.0  8.94 13.21    97
   8/26/2015 22:00    49  0.00  0.00  49.2  7.15 13.21    96
   8/26/2015 21:00    50  0.00  0.00  49.1 29.04 13.21    96


CLICK TO VIEW GRAPH!!